sensor_id;sensor_type;location;lat;lon;timestamp;P1;durP1;ratioP1;P2;durP2;ratioP2
64950;SDS011;51482;47.014;7.652;2023-12-04T00:02:10;8.83;;;6.03;;
64950;SDS011;51482;47.014;7.652;2023-12-04T00:04:35;8.20;;;5.40;;
64950;SDS011;51482;47.014;7.652;2023-12-04T00:07:01;7.70;;;4.97;;
64950;SDS011;51482;47.014;7.652;2023-12-04T00:09:27;6.10;;;4.30;;
64950;SDS011;51482;47.014;7.652;2023-12-04T00:11:53;6.23;;;4.30;;
64950;SDS011;51482;47.014;7.652;2023-12-04T00:14:18;5.87;;;4.50;;
64950;SDS011;51482;47.014;7.652;2023-12-04T00:16:44;6.63;;;4.67;;
64950;SDS011;51482;47.014;7.652;2023-12-04T00:19:09;5.97;;;4.27;;
64950;SDS011;51482;47.014;7.652;2023-12-04T00:21:35;7.00;;;5.20;;
64950;SDS011;51482;47.014;7.652;2023-12-04T00:24:00;7.13;;;4.87;;
64950;SDS011;51482;47.014;7.652;2023-12-04T00:26:26;7.67;;;4.70;;
64950;SDS011;51482;47.014;7.652;2023-12-04T00:28:51;6.20;;;4.00;;
64950;SDS011;51482;47.014;7.652;2023-12-04T00:31:17;4.93;;;4.43;;
64950;SDS011;51482;47.014;7.652;2023-12-04T00:33:42;6.60;;;4.33;;
64950;SDS011;51482;47.014;7.652;2023-12-04T00:36:08;6.53;;;4.27;;
64950;SDS011;51482;47.014;7.652;2023-12-04T00:38:34;5.43;;;4.33;;
64950;SDS011;51482;47.014;7.652;2023-12-04T00:41:00;4.10;;;3.40;;
64950;SDS011;51482;47.014;7.652;2023-12-04T00:43:25;6.17;;;4.23;;
64950;SDS011;51482;47.014;7.652;2023-12-04T00:45:51;4.80;;;4.10;;
64950;SDS011;51482;47.014;7.652;2023-12-04T00:48:16;5.27;;;4.30;;
64950;SDS011;51482;47.014;7.652;2023-12-04T00:50:42;6.73;;;4.57;;
64950;SDS011;51482;47.014;7.652;2023-12-04T00:53:08;6.70;;;5.03;;
64950;SDS011;51482;47.014;7.652;2023-12-04T00:55:33;6.07;;;4.23;;
64950;SDS011;51482;47.014;7.652;2023-12-04T00:57:59;6.73;;;4.33;;
64950;SDS011;51482;47.014;7.652;2023-12-04T01:00:24;5.07;;;3.80;;
64950;SDS011;51482;47.014;7.652;2023-12-04T01:02:50;6.60;;;4.90;;
64950;SDS011;51482;47.014;7.652;2023-12-04T01:05:16;5.37;;;4.63;;
64950;SDS011;51482;47.014;7.652;2023-12-04T01:07:42;6.07;;;3.97;;
64950;SDS011;51482;47.014;7.652;2023-12-04T01:10:07;7.93;;;4.20;;
64950;SDS011;51482;47.014;7.652;2023-12-04T01:12:33;5.83;;;4.30;;
64950;SDS011;51482;47.014;7.652;2023-12-04T01:14:58;6.60;;;4.30;;
64950;SDS011;51482;47.014;7.652;2023-12-04T01:17:24;5.33;;;4.10;;
64950;SDS011;51482;47.014;7.652;2023-12-04T01:19:50;5.03;;;4.17;;
64950;SDS011;51482;47.014;7.652;2023-12-04T01:22:15;5.93;;;4.23;;
64950;SDS011;51482;47.014;7.652;2023-12-04T01:24:41;5.77;;;4.60;;
64950;SDS011;51482;47.014;7.652;2023-12-04T01:27:06;6.53;;;4.83;;
64950;SDS011;51482;47.014;7.652;2023-12-04T01:29:32;7.03;;;4.90;;
64950;SDS011;51482;47.014;7.652;2023-12-04T01:31:57;6.00;;;4.53;;
64950;SDS011;51482;47.014;7.652;2023-12-04T01:34:23;5.10;;;4.37;;
64950;SDS011;51482;47.014;7.652;2023-12-04T01:36:48;4.77;;;4.27;;
64950;SDS011;51482;47.014;7.652;2023-12-04T01:39:14;3.87;;;3.47;;
64950;SDS011;51482;47.014;7.652;2023-12-04T01:41:39;5.67;;;3.97;;
64950;SDS011;51482;47.014;7.652;2023-12-04T01:44:05;5.37;;;3.60;;
64950;SDS011;51482;47.014;7.652;2023-12-04T01:46:30;4.20;;;3.87;;
64950;SDS011;51482;47.014;7.652;2023-12-04T01:48:56;4.87;;;3.77;;
64950;SDS011;51482;47.014;7.652;2023-12-04T01:51:22;5.00;;;3.87;;
64950;SDS011;51482;47.014;7.652;2023-12-04T01:53:50;4.60;;;3.83;;
64950;SDS011;51482;47.014;7.652;2023-12-04T01:56:16;5.20;;;3.37;;
64950;SDS011;51482;47.014;7.652;2023-12-04T01:58:43;4.00;;;3.57;;
64950;SDS011;51482;47.014;7.652;2023-12-04T02:01:09;5.63;;;3.90;;
64950;SDS011;51482;47.014;7.652;2023-12-04T02:03:36;6.07;;;3.90;;
64950;SDS011;51482;47.014;7.652;2023-12-04T02:06:02;4.43;;;4.03;;
64950;SDS011;51482;47.014;7.652;2023-12-04T02:08:29;5.57;;;3.57;;
64950;SDS011;51482;47.014;7.652;2023-12-04T02:10:57;6.43;;;3.50;;
64950;SDS011;51482;47.014;7.652;2023-12-04T02:13:23;5.57;;;3.63;;
64950;SDS011;51482;47.014;7.652;2023-12-04T02:15:49;4.90;;;4.43;;
64950;SDS011;51482;47.014;7.652;2023-12-04T02:18:18;4.30;;;3.67;;
64950;SDS011;51482;47.014;7.652;2023-12-04T02:20:44;5.30;;;4.20;;
64950;SDS011;51482;47.014;7.652;2023-12-04T02:23:09;6.37;;;4.40;;
64950;SDS011;51482;47.014;7.652;2023-12-04T02:25:35;4.13;;;3.73;;
64950;SDS011;51482;47.014;7.652;2023-12-04T02:28:02;6.40;;;3.67;;
64950;SDS011;51482;47.014;7.652;2023-12-04T02:30:31;4.40;;;3.60;;
64950;SDS011;51482;47.014;7.652;2023-12-04T02:33:02;5.13;;;3.83;;
64950;SDS011;51482;47.014;7.652;2023-12-04T02:35:31;5.50;;;4.10;;
64950;SDS011;51482;47.014;7.652;2023-12-04T02:37:58;6.20;;;4.10;;
64950;SDS011;51482;47.014;7.652;2023-12-04T02:40:25;7.30;;;3.80;;
64950;SDS011;51482;47.014;7.652;2023-12-04T02:42:51;6.30;;;3.83;;
64950;SDS011;51482;47.014;7.652;2023-12-04T02:45:16;6.87;;;4.77;;
64950;SDS011;51482;47.014;7.652;2023-12-04T02:47:42;7.80;;;4.23;;
64950;SDS011;51482;47.014;7.652;2023-12-04T02:50:08;6.77;;;3.70;;
64950;SDS011;51482;47.014;7.652;2023-12-04T02:52:33;5.17;;;3.80;;
64950;SDS011;51482;47.014;7.652;2023-12-04T02:54:59;4.50;;;3.13;;
64950;SDS011;51482;47.014;7.652;2023-12-04T02:57:24;4.63;;;3.53;;
64950;SDS011;51482;47.014;7.652;2023-12-04T02:59:50;5.37;;;3.77;;
64950;SDS011;51482;47.014;7.652;2023-12-04T03:02:15;5.43;;;3.70;;
64950;SDS011;51482;47.014;7.652;2023-12-04T03:04:41;4.97;;;3.70;;
64950;SDS011;51482;47.014;7.652;2023-12-04T03:07:06;5.27;;;4.20;;
64950;SDS011;51482;47.014;7.652;2023-12-04T03:09:32;5.37;;;3.67;;
64950;SDS011;51482;47.014;7.652;2023-12-04T03:11:57;5.53;;;4.00;;
64950;SDS011;51482;47.014;7.652;2023-12-04T03:14:23;3.97;;;3.57;;
64950;SDS011;51482;47.014;7.652;2023-12-04T03:16:49;4.10;;;3.67;;
64950;SDS011;51482;47.014;7.652;2023-12-04T03:19:15;4.43;;;3.67;;
64950;SDS011;51482;47.014;7.652;2023-12-04T03:21:40;6.73;;;4.30;;
64950;SDS011;51482;47.014;7.652;2023-12-04T03:24:06;7.13;;;4.57;;
64950;SDS011;51482;47.014;7.652;2023-12-04T03:26:32;4.60;;;3.83;;
64950;SDS011;51482;47.014;7.652;2023-12-04T03:28:57;7.33;;;3.77;;
64950;SDS011;51482;47.014;7.652;2023-12-04T03:31:23;6.17;;;4.20;;
64950;SDS011;51482;47.014;7.652;2023-12-04T03:33:50;4.20;;;3.80;;
64950;SDS011;51482;47.014;7.652;2023-12-04T03:36:15;3.50;;;2.83;;
64950;SDS011;51482;47.014;7.652;2023-12-04T03:38:41;3.20;;;2.90;;
64950;SDS011;51482;47.014;7.652;2023-12-04T03:41:13;3.00;;;2.70;;
64950;SDS011;51482;47.014;7.652;2023-12-04T03:43:42;4.93;;;3.30;;
64950;SDS011;51482;47.014;7.652;2023-12-04T03:46:07;3.53;;;2.83;;
64950;SDS011;51482;47.014;7.652;2023-12-04T03:48:33;3.00;;;2.70;;
64950;SDS011;51482;47.014;7.652;2023-12-04T03:50:58;3.40;;;2.87;;
64950;SDS011;51482;47.014;7.652;2023-12-04T03:53:24;3.53;;;2.97;;
64950;SDS011;51482;47.014;7.652;2023-12-04T03:55:51;5.00;;;3.43;;
64950;SDS011;51482;47.014;7.652;2023-12-04T03:58:16;3.73;;;2.87;;
64950;SDS011;51482;47.014;7.652;2023-12-04T04:00:42;4.73;;;3.03;;
64950;SDS011;51482;47.014;7.652;2023-12-04T04:03:08;3.50;;;2.80;;
64950;SDS011;51482;47.014;7.652;2023-12-04T04:05:34;3.17;;;2.40;;
64950;SDS011;51482;47.014;7.652;2023-12-04T04:08:00;4.00;;;2.87;;
64950;SDS011;51482;47.014;7.652;2023-12-04T04:10:26;3.57;;;3.10;;
64950;SDS011;51482;47.014;7.652;2023-12-04T04:12:51;4.67;;;3.37;;
64950;SDS011;51482;47.014;7.652;2023-12-04T04:15:17;2.70;;;2.50;;
64950;SDS011;51482;47.014;7.652;2023-12-04T04:17:43;3.63;;;3.20;;
64950;SDS011;51482;47.014;7.652;2023-12-04T04:20:08;4.37;;;3.33;;
64950;SDS011;51482;47.014;7.652;2023-12-04T04:22:35;5.37;;;3.73;;
64950;SDS011;51482;47.014;7.652;2023-12-04T04:25:05;4.70;;;3.57;;
64950;SDS011;51482;47.014;7.652;2023-12-04T04:27:32;4.20;;;3.30;;
64950;SDS011;51482;47.014;7.652;2023-12-04T04:29:57;4.23;;;3.10;;
64950;SDS011;51482;47.014;7.652;2023-12-04T04:32:23;4.27;;;2.77;;
64950;SDS011;51482;47.014;7.652;2023-12-04T04:34:51;3.73;;;2.97;;
64950;SDS011;51482;47.014;7.652;2023-12-04T04:37:17;4.03;;;2.90;;
64950;SDS011;51482;47.014;7.652;2023-12-04T04:39:42;3.10;;;2.67;;
64950;SDS011;51482;47.014;7.652;2023-12-04T04:42:08;3.57;;;2.70;;
64950;SDS011;51482;47.014;7.652;2023-12-04T04:44:34;2.80;;;2.60;;
64950;SDS011;51482;47.014;7.652;2023-12-04T04:46:59;3.80;;;2.60;;
64950;SDS011;51482;47.014;7.652;2023-12-04T04:49:25;3.87;;;2.90;;
64950;SDS011;51482;47.014;7.652;2023-12-04T04:51:50;6.40;;;3.70;;
64950;SDS011;51482;47.014;7.652;2023-12-04T04:54:16;5.60;;;4.30;;
64950;SDS011;51482;47.014;7.652;2023-12-04T04:56:41;3.93;;;3.53;;
64950;SDS011;51482;47.014;7.652;2023-12-04T04:59:07;4.37;;;3.70;;
64950;SDS011;51482;47.014;7.652;2023-12-04T05:01:32;4.77;;;3.63;;
64950;SDS011;51482;47.014;7.652;2023-12-04T05:03:58;4.50;;;3.27;;
64950;SDS011;51482;47.014;7.652;2023-12-04T05:06:24;4.13;;;3.67;;
64950;SDS011;51482;47.014;7.652;2023-12-04T05:08:50;6.83;;;4.37;;
64950;SDS011;51482;47.014;7.652;2023-12-04T05:11:17;3.50;;;3.13;;
64950;SDS011;51482;47.014;7.652;2023-12-04T05:13:44;5.30;;;3.93;;
64950;SDS011;51482;47.014;7.652;2023-12-04T05:16:10;4.27;;;3.43;;
64950;SDS011;51482;47.014;7.652;2023-12-04T05:18:36;3.70;;;3.30;;
64950;SDS011;51482;47.014;7.652;2023-12-04T05:21:03;3.37;;;3.03;;
64950;SDS011;51482;47.014;7.652;2023-12-04T05:23:28;5.13;;;3.97;;
64950;SDS011;51482;47.014;7.652;2023-12-04T05:25:54;3.60;;;3.20;;
64950;SDS011;51482;47.014;7.652;2023-12-04T05:28:19;5.03;;;3.67;;
64950;SDS011;51482;47.014;7.652;2023-12-04T05:30:45;5.20;;;4.03;;
64950;SDS011;51482;47.014;7.652;2023-12-04T05:33:10;7.90;;;4.37;;
64950;SDS011;51482;47.014;7.652;2023-12-04T05:35:36;11.63;;;4.63;;
64950;SDS011;51482;47.014;7.652;2023-12-04T05:38:02;7.60;;;5.03;;
64950;SDS011;51482;47.014;7.652;2023-12-04T05:40:28;6.93;;;5.07;;
64950;SDS011;51482;47.014;7.652;2023-12-04T05:42:53;7.17;;;4.93;;
64950;SDS011;51482;47.014;7.652;2023-12-04T05:45:19;6.60;;;5.10;;
64950;SDS011;51482;47.014;7.652;2023-12-04T05:47:44;11.00;;;5.20;;
64950;SDS011;51482;47.014;7.652;2023-12-04T05:50:10;6.33;;;4.33;;
64950;SDS011;51482;47.014;7.652;2023-12-04T05:52:35;5.13;;;3.73;;
64950;SDS011;51482;47.014;7.652;2023-12-04T05:55:01;4.57;;;3.37;;
64950;SDS011;51482;47.014;7.652;2023-12-04T05:57:27;4.03;;;3.47;;
64950;SDS011;51482;47.014;7.652;2023-12-04T05:59:52;5.23;;;3.97;;
64950;SDS011;51482;47.014;7.652;2023-12-04T06:02:18;4.17;;;3.50;;
64950;SDS011;51482;47.014;7.652;2023-12-04T06:04:44;5.97;;;4.63;;
64950;SDS011;51482;47.014;7.652;2023-12-04T06:07:09;5.27;;;4.60;;
64950;SDS011;51482;47.014;7.652;2023-12-04T06:09:35;5.50;;;3.77;;
64950;SDS011;51482;47.014;7.652;2023-12-04T06:12:02;5.10;;;3.67;;
64950;SDS011;51482;47.014;7.652;2023-12-04T06:14:33;4.37;;;3.50;;
64950;SDS011;51482;47.014;7.652;2023-12-04T06:16:58;6.30;;;4.00;;
64950;SDS011;51482;47.014;7.652;2023-12-04T06:19:24;5.23;;;3.53;;
64950;SDS011;51482;47.014;7.652;2023-12-04T06:21:49;4.10;;;3.30;;
64950;SDS011;51482;47.014;7.652;2023-12-04T06:24:15;4.77;;;3.47;;
64950;SDS011;51482;47.014;7.652;2023-12-04T06:26:41;3.40;;;3.10;;
64950;SDS011;51482;47.014;7.652;2023-12-04T06:29:08;4.30;;;3.10;;
64950;SDS011;51482;47.014;7.652;2023-12-04T06:31:34;3.40;;;3.10;;
64950;SDS011;51482;47.014;7.652;2023-12-04T06:34:00;3.50;;;3.20;;
64950;SDS011;51482;47.014;7.652;2023-12-04T06:36:25;3.60;;;3.03;;
64950;SDS011;51482;47.014;7.652;2023-12-04T06:38:54;5.33;;;3.47;;
64950;SDS011;51482;47.014;7.652;2023-12-04T06:41:21;4.67;;;2.93;;
64950;SDS011;51482;47.014;7.652;2023-12-04T06:43:47;4.00;;;3.30;;
64950;SDS011;51482;47.014;7.652;2023-12-04T06:46:13;4.37;;;3.43;;
64950;SDS011;51482;47.014;7.652;2023-12-04T06:48:40;3.80;;;3.37;;
64950;SDS011;51482;47.014;7.652;2023-12-04T06:51:08;5.60;;;4.13;;
64950;SDS011;51482;47.014;7.652;2023-12-04T06:53:33;8.53;;;4.93;;
64950;SDS011;51482;47.014;7.652;2023-12-04T06:55:59;7.13;;;4.70;;
64950;SDS011;51482;47.014;7.652;2023-12-04T06:58:24;4.17;;;3.77;;
64950;SDS011;51482;47.014;7.652;2023-12-04T07:00:50;5.97;;;3.80;;
64950;SDS011;51482;47.014;7.652;2023-12-04T07:03:15;4.50;;;4.03;;
64950;SDS011;51482;47.014;7.652;2023-12-04T07:05:41;3.80;;;3.00;;
64950;SDS011;51482;47.014;7.652;2023-12-04T07:08:07;3.37;;;3.07;;
64950;SDS011;51482;47.014;7.652;2023-12-04T07:10:32;4.57;;;3.33;;
64950;SDS011;51482;47.014;7.652;2023-12-04T07:12:58;3.87;;;2.70;;
64950;SDS011;51482;47.014;7.652;2023-12-04T07:15:23;4.93;;;3.03;;
64950;SDS011;51482;47.014;7.652;2023-12-04T07:17:49;3.77;;;3.20;;
64950;SDS011;51482;47.014;7.652;2023-12-04T07:20:14;3.90;;;3.03;;
64950;SDS011;51482;47.014;7.652;2023-12-04T07:22:40;5.80;;;3.20;;
64950;SDS011;51482;47.014;7.652;2023-12-04T07:25:06;6.07;;;3.77;;
64950;SDS011;51482;47.014;7.652;2023-12-04T07:27:32;3.77;;;3.13;;
64950;SDS011;51482;47.014;7.652;2023-12-04T07:29:58;3.43;;;3.13;;
64950;SDS011;51482;47.014;7.652;2023-12-04T07:32:25;4.63;;;3.63;;
64950;SDS011;51482;47.014;7.652;2023-12-04T07:34:50;3.67;;;3.30;;
64950;SDS011;51482;47.014;7.652;2023-12-04T07:37:16;5.80;;;3.63;;
64950;SDS011;51482;47.014;7.652;2023-12-04T07:39:41;4.10;;;3.70;;
64950;SDS011;51482;47.014;7.652;2023-12-04T07:42:11;4.90;;;3.57;;
64950;SDS011;51482;47.014;7.652;2023-12-04T07:44:36;4.50;;;4.00;;
64950;SDS011;51482;47.014;7.652;2023-12-04T07:47:02;5.13;;;3.80;;
64950;SDS011;51482;47.014;7.652;2023-12-04T07:49:28;6.53;;;4.37;;
64950;SDS011;51482;47.014;7.652;2023-12-04T07:51:53;5.27;;;4.07;;
64950;SDS011;51482;47.014;7.652;2023-12-04T07:54:19;8.47;;;5.90;;
64950;SDS011;51482;47.014;7.652;2023-12-04T07:56:44;7.00;;;4.73;;
64950;SDS011;51482;47.014;7.652;2023-12-04T07:59:10;7.63;;;6.67;;
64950;SDS011;51482;47.014;7.652;2023-12-04T08:01:35;6.23;;;5.40;;
64950;SDS011;51482;47.014;7.652;2023-12-04T08:04:01;6.23;;;5.13;;
64950;SDS011;51482;47.014;7.652;2023-12-04T08:06:27;5.93;;;4.47;;
64950;SDS011;51482;47.014;7.652;2023-12-04T08:08:53;7.50;;;5.30;;
64950;SDS011;51482;47.014;7.652;2023-12-04T08:11:20;8.57;;;5.23;;
64950;SDS011;51482;47.014;7.652;2023-12-04T08:13:46;7.87;;;4.97;;
64950;SDS011;51482;47.014;7.652;2023-12-04T08:16:14;7.20;;;4.73;;
64950;SDS011;51482;47.014;7.652;2023-12-04T08:18:40;6.00;;;4.43;;
64950;SDS011;51482;47.014;7.652;2023-12-04T08:21:06;7.27;;;4.67;;
64950;SDS011;51482;47.014;7.652;2023-12-04T08:23:32;6.70;;;4.90;;
64950;SDS011;51482;47.014;7.652;2023-12-04T08:25:58;7.10;;;5.03;;
64950;SDS011;51482;47.014;7.652;2023-12-04T08:28:24;8.43;;;4.80;;
64950;SDS011;51482;47.014;7.652;2023-12-04T08:30:49;6.03;;;5.00;;
64950;SDS011;51482;47.014;7.652;2023-12-04T08:33:15;8.37;;;5.40;;
64950;SDS011;51482;47.014;7.652;2023-12-04T08:35:40;7.77;;;5.33;;
64950;SDS011;51482;47.014;7.652;2023-12-04T08:38:06;9.90;;;6.03;;
64950;SDS011;51482;47.014;7.652;2023-12-04T08:40:32;7.07;;;5.27;;
64950;SDS011;51482;47.014;7.652;2023-12-04T08:42:57;7.73;;;5.43;;
64950;SDS011;51482;47.014;7.652;2023-12-04T08:45:23;8.20;;;5.80;;
64950;SDS011;51482;47.014;7.652;2023-12-04T08:47:49;8.93;;;5.57;;
64950;SDS011;51482;47.014;7.652;2023-12-04T08:50:14;10.73;;;6.47;;
64950;SDS011;51482;47.014;7.652;2023-12-04T08:52:40;11.13;;;6.43;;
64950;SDS011;51482;47.014;7.652;2023-12-04T08:55:06;8.80;;;5.50;;
64950;SDS011;51482;47.014;7.652;2023-12-04T08:57:32;7.93;;;5.30;;
64950;SDS011;51482;47.014;7.652;2023-12-04T08:59:58;7.90;;;5.20;;
64950;SDS011;51482;47.014;7.652;2023-12-04T09:02:23;6.87;;;4.57;;
64950;SDS011;51482;47.014;7.652;2023-12-04T09:04:49;6.57;;;4.73;;
64950;SDS011;51482;47.014;7.652;2023-12-04T09:07:14;7.73;;;4.33;;
64950;SDS011;51482;47.014;7.652;2023-12-04T09:09:40;7.17;;;4.67;;
64950;SDS011;51482;47.014;7.652;2023-12-04T09:12:06;5.07;;;4.17;;
64950;SDS011;51482;47.014;7.652;2023-12-04T09:14:33;5.73;;;4.63;;
64950;SDS011;51482;47.014;7.652;2023-12-04T09:16:59;10.70;;;6.87;;
64950;SDS011;51482;47.014;7.652;2023-12-04T09:19:25;11.23;;;6.83;;
64950;SDS011;51482;47.014;7.652;2023-12-04T09:21:50;11.60;;;8.53;;
64950;SDS011;51482;47.014;7.652;2023-12-04T09:24:16;5.53;;;4.40;;
64950;SDS011;51482;47.014;7.652;2023-12-04T09:26:41;7.17;;;4.77;;
64950;SDS011;51482;47.014;7.652;2023-12-04T09:29:08;5.13;;;4.07;;
64950;SDS011;51482;47.014;7.652;2023-12-04T09:31:36;5.40;;;4.40;;
64950;SDS011;51482;47.014;7.652;2023-12-04T09:34:01;5.30;;;4.30;;
64950;SDS011;51482;47.014;7.652;2023-12-04T09:36:27;5.50;;;4.87;;
64950;SDS011;51482;47.014;7.652;2023-12-04T09:38:52;5.97;;;4.37;;
64950;SDS011;51482;47.014;7.652;2023-12-04T09:41:18;6.97;;;4.80;;
64950;SDS011;51482;47.014;7.652;2023-12-04T09:43:46;5.37;;;4.27;;
64950;SDS011;51482;47.014;7.652;2023-12-04T09:46:12;6.30;;;4.80;;
64950;SDS011;51482;47.014;7.652;2023-12-04T09:48:40;7.83;;;4.97;;
64950;SDS011;51482;47.014;7.652;2023-12-04T09:51:08;7.20;;;4.97;;
64950;SDS011;51482;47.014;7.652;2023-12-04T09:53:34;45.40;;;19.53;;
64950;SDS011;51482;47.014;7.652;2023-12-04T09:56:01;7.07;;;5.63;;
64950;SDS011;51482;47.014;7.652;2023-12-04T09:58:28;7.10;;;5.57;;
64950;SDS011;51482;47.014;7.652;2023-12-04T10:00:55;7.03;;;4.77;;
64950;SDS011;51482;47.014;7.652;2023-12-04T10:03:21;8.07;;;4.20;;
64950;SDS011;51482;47.014;7.652;2023-12-04T10:05:48;5.53;;;4.53;;
64950;SDS011;51482;47.014;7.652;2023-12-04T10:08:14;8.43;;;5.83;;
64950;SDS011;51482;47.014;7.652;2023-12-04T10:10:39;7.70;;;5.70;;
64950;SDS011;51482;47.014;7.652;2023-12-04T10:13:05;7.43;;;4.80;;
64950;SDS011;51482;47.014;7.652;2023-12-04T10:15:31;6.40;;;4.87;;
64950;SDS011;51482;47.014;7.652;2023-12-04T10:17:57;4.77;;;4.30;;
64950;SDS011;51482;47.014;7.652;2023-12-04T10:20:23;5.60;;;4.30;;
64950;SDS011;51482;47.014;7.652;2023-12-04T10:22:56;11.10;;;5.60;;
64950;SDS011;51482;47.014;7.652;2023-12-04T10:25:24;8.17;;;5.03;;
64950;SDS011;51482;47.014;7.652;2023-12-04T10:27:53;7.13;;;4.60;;
64950;SDS011;51482;47.014;7.652;2023-12-04T10:30:22;6.80;;;4.40;;
64950;SDS011;51482;47.014;7.652;2023-12-04T10:32:49;12.73;;;6.27;;
64950;SDS011;51482;47.014;7.652;2023-12-04T10:35:18;6.03;;;4.70;;
64950;SDS011;51482;47.014;7.652;2023-12-04T10:37:44;5.90;;;4.40;;
64950;SDS011;51482;47.014;7.652;2023-12-04T10:40:09;5.77;;;4.83;;
64950;SDS011;51482;47.014;7.652;2023-12-04T10:42:35;4.57;;;4.07;;
64950;SDS011;51482;47.014;7.652;2023-12-04T10:45:00;5.63;;;4.40;;
64950;SDS011;51482;47.014;7.652;2023-12-04T10:47:27;4.57;;;4.00;;
64950;SDS011;51482;47.014;7.652;2023-12-04T10:49:55;5.93;;;4.33;;
64950;SDS011;51482;47.014;7.652;2023-12-04T10:52:22;6.33;;;4.77;;
64950;SDS011;51482;47.014;7.652;2023-12-04T10:54:47;5.80;;;4.43;;
64950;SDS011;51482;47.014;7.652;2023-12-04T10:57:16;7.80;;;5.07;;
64950;SDS011;51482;47.014;7.652;2023-12-04T10:59:47;7.80;;;5.90;;
64950;SDS011;51482;47.014;7.652;2023-12-04T11:02:18;5.83;;;4.83;;
64950;SDS011;51482;47.014;7.652;2023-12-04T11:04:47;6.47;;;5.17;;
64950;SDS011;51482;47.014;7.652;2023-12-04T11:07:16;5.40;;;4.87;;
64950;SDS011;51482;47.014;7.652;2023-12-04T11:09:44;7.20;;;4.53;;
64950;SDS011;51482;47.014;7.652;2023-12-04T11:12:14;6.80;;;4.27;;
64950;SDS011;51482;47.014;7.652;2023-12-04T11:14:46;6.13;;;4.77;;
64950;SDS011;51482;47.014;7.652;2023-12-04T11:17:18;8.93;;;5.30;;
64950;SDS011;51482;47.014;7.652;2023-12-04T11:20:02;13.40;;;10.63;;
64950;SDS011;51482;47.014;7.652;2023-12-04T11:22:35;10.37;;;6.30;;
64950;SDS011;51482;47.014;7.652;2023-12-04T11:25:05;5.70;;;4.90;;
64950;SDS011;51482;47.014;7.652;2023-12-04T11:27:32;5.40;;;4.70;;
64950;SDS011;51482;47.014;7.652;2023-12-04T11:29:59;12.57;;;7.37;;
64950;SDS011;51482;47.014;7.652;2023-12-04T11:32:28;7.23;;;5.23;;
64950;SDS011;51482;47.014;7.652;2023-12-04T11:34:55;7.60;;;5.13;;
64950;SDS011;51482;47.014;7.652;2023-12-04T11:37:21;6.73;;;5.63;;
64950;SDS011;51482;47.014;7.652;2023-12-04T11:39:49;7.63;;;4.70;;
64950;SDS011;51482;47.014;7.652;2023-12-04T11:42:19;9.20;;;5.17;;
64950;SDS011;51482;47.014;7.652;2023-12-04T11:44:47;5.30;;;4.40;;
64950;SDS011;51482;47.014;7.652;2023-12-04T11:47:14;9.83;;;4.83;;
64950;SDS011;51482;47.014;7.652;2023-12-04T11:49:40;7.17;;;5.20;;
64950;SDS011;51482;47.014;7.652;2023-12-04T11:52:06;7.07;;;4.33;;
64950;SDS011;51482;47.014;7.652;2023-12-04T11:57:24;7.77;;;5.17;;
64950;SDS011;51482;47.014;7.652;2023-12-04T11:59:51;7.43;;;5.20;;
64950;SDS011;51482;47.014;7.652;2023-12-04T12:02:17;6.87;;;4.57;;
64950;SDS011;51482;47.014;7.652;2023-12-04T12:04:43;6.33;;;5.20;;
64950;SDS011;51482;47.014;7.652;2023-12-04T12:07:10;6.30;;;5.00;;
64950;SDS011;51482;47.014;7.652;2023-12-04T12:09:36;6.20;;;5.13;;
64950;SDS011;51482;47.014;7.652;2023-12-04T12:12:02;7.10;;;4.83;;
64950;SDS011;51482;47.014;7.652;2023-12-04T12:14:29;6.87;;;4.90;;
64950;SDS011;51482;47.014;7.652;2023-12-04T12:16:55;8.00;;;5.00;;
64950;SDS011;51482;47.014;7.652;2023-12-04T12:19:23;6.83;;;4.70;;
64950;SDS011;51482;47.014;7.652;2023-12-04T12:21:49;7.27;;;5.17;;
64950;SDS011;51482;47.014;7.652;2023-12-04T12:24:16;5.33;;;4.77;;
64950;SDS011;51482;47.014;7.652;2023-12-04T12:26:42;7.77;;;6.00;;
64950;SDS011;51482;47.014;7.652;2023-12-04T12:29:11;6.90;;;5.37;;
64950;SDS011;51482;47.014;7.652;2023-12-04T12:31:37;6.97;;;5.30;;
64950;SDS011;51482;47.014;7.652;2023-12-04T12:34:02;6.57;;;4.67;;
64950;SDS011;51482;47.014;7.652;2023-12-04T12:36:28;10.53;;;7.63;;
64950;SDS011;51482;47.014;7.652;2023-12-04T12:38:56;8.70;;;6.20;;
64950;SDS011;51482;47.014;7.652;2023-12-04T12:41:22;6.83;;;5.53;;
64950;SDS011;51482;47.014;7.652;2023-12-04T12:43:51;7.03;;;5.50;;
64950;SDS011;51482;47.014;7.652;2023-12-04T12:46:17;8.23;;;5.70;;
64950;SDS011;51482;47.014;7.652;2023-12-04T12:48:43;7.63;;;5.77;;
64950;SDS011;51482;47.014;7.652;2023-12-04T12:51:09;8.57;;;6.83;;
64950;SDS011;51482;47.014;7.652;2023-12-04T12:53:36;6.67;;;5.50;;
64950;SDS011;51482;47.014;7.652;2023-12-04T12:56:02;8.87;;;6.00;;
64950;SDS011;51482;47.014;7.652;2023-12-04T12:58:28;10.00;;;6.47;;
64950;SDS011;51482;47.014;7.652;2023-12-04T13:00:54;9.10;;;7.13;;
64950;SDS011;51482;47.014;7.652;2023-12-04T13:03:20;9.77;;;7.40;;
64950;SDS011;51482;47.014;7.652;2023-12-04T13:05:45;10.37;;;7.80;;
64950;SDS011;51482;47.014;7.652;2023-12-04T13:08:11;9.17;;;7.73;;
64950;SDS011;51482;47.014;7.652;2023-12-04T13:10:37;10.43;;;6.67;;
64950;SDS011;51482;47.014;7.652;2023-12-04T13:13:03;8.70;;;6.83;;
64950;SDS011;51482;47.014;7.652;2023-12-04T13:15:34;10.67;;;7.77;;
64950;SDS011;51482;47.014;7.652;2023-12-04T13:18:00;10.50;;;7.53;;
64950;SDS011;51482;47.014;7.652;2023-12-04T13:20:25;9.10;;;7.70;;
64950;SDS011;51482;47.014;7.652;2023-12-04T13:22:51;9.37;;;7.77;;
64950;SDS011;51482;47.014;7.652;2023-12-04T13:25:16;11.00;;;7.90;;
64950;SDS011;51482;47.014;7.652;2023-12-04T13:27:42;12.97;;;7.90;;
64950;SDS011;51482;47.014;7.652;2023-12-04T13:30:08;8.97;;;7.07;;
64950;SDS011;51482;47.014;7.652;2023-12-04T13:32:35;10.33;;;7.40;;
64950;SDS011;51482;47.014;7.652;2023-12-04T13:35:04;9.07;;;6.77;;
64950;SDS011;51482;47.014;7.652;2023-12-04T13:37:31;9.10;;;7.43;;
64950;SDS011;51482;47.014;7.652;2023-12-04T13:39:56;9.57;;;7.97;;
64950;SDS011;51482;47.014;7.652;2023-12-04T13:42:26;8.40;;;7.23;;
64950;SDS011;51482;47.014;7.652;2023-12-04T13:45:10;10.00;;;7.80;;
64950;SDS011;51482;47.014;7.652;2023-12-04T13:47:37;10.30;;;7.87;;
64950;SDS011;51482;47.014;7.652;2023-12-04T13:50:03;9.50;;;7.13;;
64950;SDS011;51482;47.014;7.652;2023-12-04T13:52:30;10.90;;;7.13;;
64950;SDS011;51482;47.014;7.652;2023-12-04T13:54:59;13.43;;;7.83;;
64950;SDS011;51482;47.014;7.652;2023-12-04T13:57:25;11.53;;;7.40;;
64950;SDS011;51482;47.014;7.652;2023-12-04T13:59:58;13.13;;;7.87;;
64950;SDS011;51482;47.014;7.652;2023-12-04T14:02:24;9.60;;;7.83;;
64950;SDS011;51482;47.014;7.652;2023-12-04T14:04:50;12.97;;;8.50;;
64950;SDS011;51482;47.014;7.652;2023-12-04T14:07:16;11.53;;;8.70;;
64950;SDS011;51482;47.014;7.652;2023-12-04T14:09:42;12.13;;;8.83;;
64950;SDS011;51482;47.014;7.652;2023-12-04T14:12:09;10.10;;;8.43;;
64950;SDS011;51482;47.014;7.652;2023-12-04T14:14:35;11.57;;;8.60;;
64950;SDS011;51482;47.014;7.652;2023-12-04T14:17:02;10.87;;;8.13;;
64950;SDS011;51482;47.014;7.652;2023-12-04T14:19:29;12.73;;;8.00;;
64950;SDS011;51482;47.014;7.652;2023-12-04T14:21:55;10.30;;;8.13;;
64950;SDS011;51482;47.014;7.652;2023-12-04T14:24:21;10.40;;;8.27;;
64950;SDS011;51482;47.014;7.652;2023-12-04T14:26:47;9.63;;;7.57;;
64950;SDS011;51482;47.014;7.652;2023-12-04T14:29:16;10.53;;;7.80;;
64950;SDS011;51482;47.014;7.652;2023-12-04T14:31:41;10.37;;;7.30;;
64950;SDS011;51482;47.014;7.652;2023-12-04T14:34:07;10.83;;;8.27;;
64950;SDS011;51482;47.014;7.652;2023-12-04T14:36:33;10.07;;;8.13;;
64950;SDS011;51482;47.014;7.652;2023-12-04T14:38:58;10.77;;;8.07;;
64950;SDS011;51482;47.014;7.652;2023-12-04T14:41:24;10.80;;;7.97;;
64950;SDS011;51482;47.014;7.652;2023-12-04T14:43:50;12.30;;;8.40;;